Time,TemperatureF,DewpointF,PressureIn,WindDirection,WindDirectionDegrees,WindSpeedMPH,WindSpeedGustMPH,Humidity,HourlyPrecipIn,Conditions,Clouds,dailyrainin,SolarRadiationWatts/m^2,SoftwareType,DateUTC
2013-06-10 00:12:00,67.0,4.0,-100.00,SSW,200,8.0,23.0,8,0.00,,,0.00,0.000000,,2013-06-10 07:12:00,
2013-06-10 00:22:00,67.0,4.0,-100.00,SSW,200,8.0,23.0,8,0.00,,,0.00,0.000000,,2013-06-10 07:22:00,
2013-06-10 00:42:00,67.0,4.0,-100.00,SSW,200,8.0,23.0,8,0.00,,,0.00,0.000000,,2013-06-10 07:42:00,
2013-06-10 00:51:00,67.0,6.0,-100.00,South,185,9.0,20.0,9,0.00,,,0.00,0.000000,,2013-06-10 07:51:00,
2013-06-10 01:12:00,67.0,6.0,-100.00,South,185,9.0,20.0,9,0.00,,,0.00,0.000000,,2013-06-10 08:12:00,
2013-06-10 01:22:00,67.0,6.0,-100.00,South,185,9.0,20.0,9,0.00,,,0.00,0.000000,,2013-06-10 08:22:00,
2013-06-10 01:32:00,67.0,6.0,-100.00,South,185,9.0,20.0,9,0.00,,,0.00,0.000000,,2013-06-10 08:32:00,
2013-06-10 01:42:00,67.0,6.0,-100.00,South,185,9.0,20.0,9,0.00,,,0.00,0.000000,,2013-06-10 08:42:00,
2013-06-10 01:51:00,66.0,6.0,-100.00,SW,221,13.0,25.0,9,0.00,,,0.00,0.000000,,2013-06-10 08:51:00,
2013-06-10 02:12:00,66.0,6.0,-100.00,SW,221,13.0,25.0,9,0.00,,,0.00,0.000000,,2013-06-10 09:12:00,
2013-06-10 02:22:00,66.0,6.0,-100.00,SW,221,13.0,25.0,9,0.00,,,0.00,0.000000,,2013-06-10 09:22:00,
2013-06-10 02:32:00,66.0,6.0,-100.00,SW,221,13.0,25.0,9,0.00,,,0.00,0.000000,,2013-06-10 09:32:00,
2013-06-10 02:42:00,66.0,6.0,-100.00,SW,221,13.0,25.0,9,0.00,,,0.00,0.000000,,2013-06-10 09:42:00,
2013-06-10 02:51:00,65.0,13.0,-100.00,SSW,193,14.0,28.0,13,0.00,,,0.00,0.000000,,2013-06-10 09:51:00,
2013-06-10 03:12:00,65.0,13.0,-100.00,SSW,193,14.0,28.0,13,0.00,,,0.00,0.000000,,2013-06-10 10:12:00,
2013-06-10 03:22:00,65.0,13.0,-100.00,SSW,193,14.0,28.0,13,0.00,,,0.00,0.000000,,2013-06-10 10:22:00,
2013-06-10 03:33:00,65.0,13.0,-100.00,SSW,193,14.0,28.0,13,0.00,,,0.00,0.000000,,2013-06-10 10:33:00,
2013-06-10 03:42:00,65.0,13.0,-100.00,SSW,193,14.0,28.0,13,0.00,,,0.00,0.000000,,2013-06-10 10:42:00,
2013-06-10 03:51:00,66.0,15.0,-100.00,SSW,197,13.0,31.0,14,0.00,,,0.00,0.000000,,2013-06-10 10:51:00,
2013-06-10 04:12:00,66.0,15.0,-100.00,SSW,197,13.0,31.0,14,0.00,,,0.00,0.000000,,2013-06-10 11:12:00,
2013-06-10 04:22:00,66.0,15.0,-100.00,SSW,197,13.0,31.0,14,0.00,,,0.00,0.000000,,2013-06-10 11:22:00,
2013-06-10 04:32:00,66.0,15.0,-100.00,SSW,197,13.0,31.0,14,0.00,,,0.00,0.000000,,2013-06-10 11:32:00,
2013-06-10 04:42:00,66.0,15.0,-100.00,SSW,197,13.0,31.0,14,0.00,,,0.00,0.000000,,2013-06-10 11:42:00,
2013-06-10 06:51:00,66.0,23.0,-100.00,SW,230,28.0,53.0,19,-99.99,,,0.00,127.000000,,2013-06-10 13:51:00,
2013-06-10 07:12:00,66.0,23.0,-100.00,SW,230,28.0,53.0,19,-99.99,,,0.00,127.000000,,2013-06-10 14:12:00,
2013-06-10 07:22:00,66.0,23.0,-100.00,SW,230,28.0,53.0,19,-99.99,,,0.00,127.000000,,2013-06-10 14:22:00,
2013-06-10 07:32:00,66.0,23.0,-100.00,SW,230,28.0,53.0,19,-99.99,,,0.00,127.000000,,2013-06-10 14:32:00,
2013-06-10 07:42:00,66.0,23.0,-100.00,SW,230,28.0,53.0,19,-99.99,,,0.00,127.000000,,2013-06-10 14:42:00,
2013-06-10 07:51:00,67.0,22.0,-100.00,SW,228,31.0,47.0,18,0.00,,,0.00,363.000000,,2013-06-10 14:51:00,
2013-06-10 08:12:00,67.0,22.0,-100.00,SW,228,31.0,47.0,18,0.00,,,0.00,363.000000,,2013-06-10 15:12:00,
2013-06-10 08:22:00,67.0,22.0,-100.00,SW,228,31.0,47.0,18,0.00,,,0.00,363.000000,,2013-06-10 15:22:00,
2013-06-10 08:32:00,67.0,22.0,-100.00,SW,228,31.0,47.0,18,0.00,,,0.00,363.000000,,2013-06-10 15:32:00,
2013-06-10 08:43:00,67.0,22.0,-100.00,SW,228,31.0,47.0,18,0.00,,,0.00,363.000000,,2013-06-10 15:43:00,
2013-06-10 08:51:00,69.0,16.0,-100.00,SW,228,28.0,60.0,13,0.00,,,0.00,598.000000,,2013-06-10 15:51:00,
2013-06-10 09:12:00,69.0,16.0,-100.00,SW,228,28.0,60.0,13,0.00,,,0.00,598.000000,,2013-06-10 16:12:00,
2013-06-10 09:42:00,69.0,16.0,-100.00,SW,228,28.0,60.0,13,0.00,,,0.00,598.000000,,2013-06-10 16:42:00,
2013-06-10 10:14:00,72.0,10.0,-100.00,SW,233,20.0,47.0,9,0.00,,,0.00,841.000000,,2013-06-10 17:14:00,
2013-06-10 10:51:00,77.0,18.0,-100.00,East,97,5.0,31.0,11,0.00,,,0.00,1009.000000,,2013-06-10 17:51:00,
2013-06-10 11:14:00,77.0,18.0,-100.00,East,97,5.0,31.0,11,0.00,,,0.00,1009.000000,,2013-06-10 18:14:00,
2013-06-10 11:24:00,77.0,18.0,-100.00,East,97,5.0,31.0,11,0.00,,,0.00,1009.000000,,2013-06-10 18:24:00,
2013-06-10 11:34:00,77.0,18.0,-100.00,East,97,5.0,31.0,11,0.00,,,0.00,1009.000000,,2013-06-10 18:34:00,
2013-06-10 11:48:00,77.0,18.0,-100.00,East,97,5.0,31.0,11,0.00,,,0.00,1009.000000,,2013-06-10 18:48:00,
2013-06-10 11:51:00,75.0,17.0,-100.00,South,178,18.0,31.0,11,0.00,,,0.00,1145.000000,,2013-06-10 18:51:00,
2013-06-10 12:12:00,75.0,17.0,-100.00,South,178,18.0,31.0,11,0.00,,,0.00,1145.000000,,2013-06-10 19:12:00,
2013-06-10 12:22:00,75.0,17.0,-100.00,South,178,18.0,31.0,11,0.00,,,0.00,1145.000000,,2013-06-10 19:22:00,
2013-06-10 12:32:00,75.0,17.0,-100.00,South,178,18.0,31.0,11,0.00,,,0.00,1145.000000,,2013-06-10 19:32:00,
2013-06-10 12:42:00,75.0,17.0,-100.00,South,178,18.0,31.0,11,0.00,,,0.00,1145.000000,,2013-06-10 19:42:00,
2013-06-10 13:12:00,76.0,4.0,-100.00,SW,220,24.0,41.0,6,0.00,,,0.00,1213.000000,,2013-06-10 20:12:00,
2013-06-10 13:22:00,76.0,4.0,-100.00,SW,220,24.0,41.0,6,0.00,,,0.00,1213.000000,,2013-06-10 20:22:00,
2013-06-10 14:12:00,79.0,6.0,-100.00,SW,221,15.0,42.0,6,0.00,,,0.00,1234.000000,,2013-06-10 21:12:00,
2013-06-10 14:51:00,77.0,5.0,-100.00,South,189,15.0,29.0,6,0.00,,,0.00,1175.000000,,2013-06-10 21:51:00,
2013-06-10 15:13:00,77.0,5.0,-100.00,South,189,15.0,29.0,6,0.00,,,0.00,1175.000000,,2013-06-10 22:13:00,
2013-06-10 15:42:00,77.0,5.0,-100.00,South,189,15.0,29.0,6,0.00,,,0.00,1175.000000,,2013-06-10 22:42:00,
2013-06-10 15:51:00,80.0,3.0,-100.00,SSE,167,7.0,30.0,5,0.00,,,0.00,1045.000000,,2013-06-10 22:51:00,
2013-06-10 16:12:00,80.0,3.0,-100.00,SSE,167,7.0,30.0,5,0.00,,,0.00,1045.000000,,2013-06-10 23:12:00,
2013-06-10 16:42:00,80.0,3.0,-100.00,SSE,167,7.0,30.0,5,0.00,,,0.00,1045.000000,,2013-06-10 23:42:00,
2013-06-10 17:12:00,75.0,7.0,-100.00,WSW,247,24.0,38.0,7,0.00,,,0.00,865.000000,,2013-06-11 00:12:00,
2013-06-10 17:22:00,75.0,7.0,-100.00,WSW,247,24.0,38.0,7,0.00,,,0.00,865.000000,,2013-06-11 00:22:00,
2013-06-10 17:51:00,71.0,21.0,-100.00,WSW,240,38.0,55.0,15,0.00,,,0.00,340.000000,,2013-06-11 00:51:00,
2013-06-10 18:12:00,71.0,21.0,-100.00,WSW,240,38.0,55.0,15,0.00,,,0.00,340.000000,,2013-06-11 01:12:00,
2013-06-10 18:22:00,71.0,21.0,-100.00,WSW,240,38.0,55.0,15,0.00,,,0.00,340.000000,,2013-06-11 01:22:00,
2013-06-10 18:32:00,71.0,21.0,-100.00,WSW,240,38.0,55.0,15,0.00,,,0.00,340.000000,,2013-06-11 01:32:00,
2013-06-10 18:42:00,71.0,21.0,-100.00,WSW,240,38.0,55.0,15,0.00,,,0.00,340.000000,,2013-06-11 01:42:00,
2013-06-10 18:51:00,70.0,23.0,-100.00,WSW,238,26.0,65.0,17,0.00,,,0.00,39.000000,,2013-06-11 01:51:00,
2013-06-10 19:12:00,70.0,23.0,-100.00,WSW,238,26.0,65.0,17,0.00,,,0.00,39.000000,,2013-06-11 02:12:00,
2013-06-10 19:22:00,70.0,23.0,-100.00,WSW,238,26.0,65.0,17,0.00,,,0.00,39.000000,,2013-06-11 02:22:00,
2013-06-10 19:32:00,70.0,23.0,-100.00,WSW,238,26.0,65.0,17,0.00,,,0.00,39.000000,,2013-06-11 02:32:00,
2013-06-10 19:42:00,70.0,23.0,-100.00,WSW,238,26.0,65.0,17,0.00,,,0.00,39.000000,,2013-06-11 02:42:00,
2013-06-10 19:51:00,68.0,22.0,-100.00,WSW,257,16.0,35.0,17,0.00,,,0.00,85.000000,,2013-06-11 02:51:00,
2013-06-10 20:12:00,68.0,22.0,-100.00,WSW,257,16.0,35.0,17,0.00,,,0.00,85.000000,,2013-06-11 03:12:00,
2013-06-10 20:42:00,68.0,22.0,-100.00,WSW,257,16.0,35.0,17,0.00,,,0.00,85.000000,,2013-06-11 03:42:00,
2013-06-10 20:51:00,66.0,19.0,-100.00,NNE,25,5.0,30.0,16,0.00,,,0.00,1.000000,,2013-06-11 03:51:00,
2013-06-10 21:12:00,66.0,19.0,-100.00,NNE,25,5.0,30.0,16,0.00,,,0.00,1.000000,,2013-06-11 04:12:00,
2013-06-10 21:23:00,66.0,19.0,-100.00,NNE,25,5.0,30.0,16,0.00,,,0.00,1.000000,,2013-06-11 04:23:00,
2013-06-10 21:33:00,66.0,19.0,-100.00,NNE,25,5.0,30.0,16,0.00,,,0.00,1.000000,,2013-06-11 04:33:00,
2013-06-10 21:42:00,66.0,19.0,-100.00,NNE,25,5.0,30.0,16,0.00,,,0.00,1.000000,,2013-06-11 04:42:00,
2013-06-10 21:51:00,63.0,11.0,-100.00,East,100,2.0,10.0,13,0.00,,,0.00,0.000000,,2013-06-11 04:51:00,
2013-06-10 22:12:00,63.0,11.0,-100.00,East,100,2.0,10.0,13,0.00,,,0.00,0.000000,,2013-06-11 05:12:00,
2013-06-10 22:22:00,63.0,11.0,-100.00,East,100,2.0,10.0,13,0.00,,,0.00,0.000000,,2013-06-11 05:22:00,
2013-06-10 22:42:00,63.0,11.0,-100.00,East,100,2.0,10.0,13,0.00,,,0.00,0.000000,,2013-06-11 05:42:00,
2013-06-10 23:12:00,64.0,-8.0,-100.00,WNW,284,4.0,9.0,5,0.00,,,-99.99,0.000000,,2013-06-11 06:12:00,
2013-06-10 23:22:00,64.0,-8.0,-100.00,WNW,284,4.0,9.0,5,0.00,,,-99.99,0.000000,,2013-06-11 06:22:00,